KLSE

La Crosse Regional Airport

La Crosse, Wisconsin, USA
METAR KLSE 201453Z 29003KT 10SM OVC007 00/M01 A2982 RMK AO2 SLP107 T00001006 53005
Observed Flight Rules
Feb-20 @ 14:53 UTC (5 hours ago) Instrument Flight Rules
Wind Visibility Clouds
290° at 3 knots 10 miles
  • Overcast at 700' AGL
Temperatures Readings
Current 0°C / 32°F
Dewpoint -1°C / 30°F
Humidity 93%
Altimeter 29.82" Hg
Pressure 1010.7 hPa
Elevation 199
METAR KLSE 201453Z 29003KT 10SM OVC007 00/M01 A2982 RMK AO2 SLP107 T00001006 53005
Observed Flight Rules
Feb-20 @ 14:53 UTC
(5 hours ago)
IFR
Wind Visibility
290° at 3 knots 10 miles
Clouds
  • Overcast at 700' AGL
Temperature Dewpoint
0°C / 32°F -1°C / 30°F
Humidity Altimeter Pressure
93% 29.82" Hg 1010.7 hPa